sensor_id;sensor_type;location;lat;lon;timestamp;P1;durP1;ratioP1;P2;durP2;ratioP2
46755;SDS011;32506;52.826;-1.192;2022-08-03T00:02:15;0.80;;;0.30;;
46755;SDS011;32506;52.826;-1.192;2022-08-03T00:04:40;0.65;;;0.40;;
46755;SDS011;32506;52.826;-1.192;2022-08-03T00:07:06;0.40;;;0.30;;
46755;SDS011;32506;52.826;-1.192;2022-08-03T00:09:31;0.57;;;0.20;;
46755;SDS011;32506;52.826;-1.192;2022-08-03T00:11:57;0.57;;;0.20;;
46755;SDS011;32506;52.826;-1.192;2022-08-03T00:14:22;1.05;;;0.30;;
46755;SDS011;32506;52.826;-1.192;2022-08-03T00:16:48;0.63;;;0.30;;
46755;SDS011;32506;52.826;-1.192;2022-08-03T00:19:13;0.55;;;0.28;;
46755;SDS011;32506;52.826;-1.192;2022-08-03T00:21:39;2.45;;;0.50;;
46755;SDS011;32506;52.826;-1.192;2022-08-03T00:24:05;0.98;;;0.25;;
46755;SDS011;32506;52.826;-1.192;2022-08-03T00:26:30;0.47;;;0.35;;
46755;SDS011;32506;52.826;-1.192;2022-08-03T00:28:56;1.02;;;0.30;;
46755;SDS011;32506;52.826;-1.192;2022-08-03T00:31:21;0.52;;;0.28;;
46755;SDS011;32506;52.826;-1.192;2022-08-03T00:33:47;2.75;;;0.38;;
46755;SDS011;32506;52.826;-1.192;2022-08-03T00:36:12;1.05;;;0.38;;
46755;SDS011;32506;52.826;-1.192;2022-08-03T00:38:38;0.55;;;0.32;;
46755;SDS011;32506;52.826;-1.192;2022-08-03T00:41:03;0.50;;;0.20;;
46755;SDS011;32506;52.826;-1.192;2022-08-03T00:43:29;0.63;;;0.30;;
46755;SDS011;32506;52.826;-1.192;2022-08-03T00:45:54;0.80;;;0.28;;
46755;SDS011;32506;52.826;-1.192;2022-08-03T00:48:21;0.95;;;0.40;;
46755;SDS011;32506;52.826;-1.192;2022-08-03T00:50:46;0.75;;;0.22;;
46755;SDS011;32506;52.826;-1.192;2022-08-03T00:53:12;0.35;;;0.10;;
46755;SDS011;32506;52.826;-1.192;2022-08-03T00:55:39;1.90;;;0.30;;
46755;SDS011;32506;52.826;-1.192;2022-08-03T00:58:06;0.93;;;0.20;;
46755;SDS011;32506;52.826;-1.192;2022-08-03T01:00:32;1.50;;;0.32;;
46755;SDS011;32506;52.826;-1.192;2022-08-03T01:03:03;0.47;;;0.20;;
46755;SDS011;32506;52.826;-1.192;2022-08-03T01:05:44;0.28;;;0.10;;
46755;SDS011;32506;52.826;-1.192;2022-08-03T01:11:18;1.00;;;0.20;;
46755;SDS011;32506;52.826;-1.192;2022-08-03T01:14:08;0.75;;;0.20;;
46755;SDS011;32506;52.826;-1.192;2022-08-03T01:16:38;0.10;;;0.10;;
46755;SDS011;32506;52.826;-1.192;2022-08-03T01:35:27;0.60;;;0.15;;
46755;SDS011;32506;52.826;-1.192;2022-08-03T01:38:00;0.15;;;0.10;;
46755;SDS011;32506;52.826;-1.192;2022-08-03T01:40:28;1.52;;;0.10;;
46755;SDS011;32506;52.826;-1.192;2022-08-03T01:42:58;0.50;;;0.20;;
46755;SDS011;32506;52.826;-1.192;2022-08-03T01:45:26;0.68;;;0.30;;
46755;SDS011;32506;52.826;-1.192;2022-08-03T01:47:52;0.63;;;0.10;;
46755;SDS011;32506;52.826;-1.192;2022-08-03T01:50:22;1.10;;;0.10;;
46755;SDS011;32506;52.826;-1.192;2022-08-03T01:52:52;0.20;;;0.10;;
46755;SDS011;32506;52.826;-1.192;2022-08-03T01:55:20;0.70;;;0.40;;
46755;SDS011;32506;52.826;-1.192;2022-08-03T01:57:48;0.30;;;0.10;;
46755;SDS011;32506;52.826;-1.192;2022-08-03T02:00:17;0.77;;;0.28;;
46755;SDS011;32506;52.826;-1.192;2022-08-03T02:02:43;0.55;;;0.30;;
46755;SDS011;32506;52.826;-1.192;2022-08-03T02:05:13;0.88;;;0.10;;
46755;SDS011;32506;52.826;-1.192;2022-08-03T02:07:40;0.20;;;0.10;;
46755;SDS011;32506;52.826;-1.192;2022-08-03T02:10:07;1.08;;;0.20;;
46755;SDS011;32506;52.826;-1.192;2022-08-03T02:12:35;0.30;;;0.20;;
46755;SDS011;32506;52.826;-1.192;2022-08-03T02:15:02;0.65;;;0.10;;
46755;SDS011;32506;52.826;-1.192;2022-08-03T02:17:29;0.10;;;0.10;;
46755;SDS011;32506;52.826;-1.192;2022-08-03T02:19:58;1.00;;;0.20;;
46755;SDS011;32506;52.826;-1.192;2022-08-03T02:22:25;2.88;;;0.30;;
46755;SDS011;32506;52.826;-1.192;2022-08-03T02:24:52;0.68;;;0.03;;
46755;SDS011;32506;52.826;-1.192;2022-08-03T02:27:22;1.98;;;0.30;;
46755;SDS011;32506;52.826;-1.192;2022-08-03T02:30:11;0.25;;;0.17;;
46755;SDS011;32506;52.826;-1.192;2022-08-03T02:32:38;0.43;;;0.30;;
46755;SDS011;32506;52.826;-1.192;2022-08-03T02:35:06;0.73;;;0.28;;
46755;SDS011;32506;52.826;-1.192;2022-08-03T02:37:42;0.45;;;0.28;;
46755;SDS011;32506;52.826;-1.192;2022-08-03T02:40:12;1.15;;;0.20;;
46755;SDS011;32506;52.826;-1.192;2022-08-03T02:42:40;1.65;;;0.35;;
46755;SDS011;32506;52.826;-1.192;2022-08-03T02:45:09;0.82;;;0.40;;
46755;SDS011;32506;52.826;-1.192;2022-08-03T02:47:40;0.50;;;0.20;;
46755;SDS011;32506;52.826;-1.192;2022-08-03T02:50:08;0.68;;;0.40;;
46755;SDS011;32506;52.826;-1.192;2022-08-03T02:52:36;2.08;;;0.40;;
46755;SDS011;32506;52.826;-1.192;2022-08-03T02:55:03;2.28;;;0.60;;
46755;SDS011;32506;52.826;-1.192;2022-08-03T02:57:32;1.02;;;0.55;;
46755;SDS011;32506;52.826;-1.192;2022-08-03T02:59:59;0.50;;;0.30;;
46755;SDS011;32506;52.826;-1.192;2022-08-03T03:02:26;1.23;;;0.40;;
46755;SDS011;32506;52.826;-1.192;2022-08-03T03:04:53;0.93;;;0.30;;
46755;SDS011;32506;52.826;-1.192;2022-08-03T03:07:20;2.58;;;0.90;;
46755;SDS011;32506;52.826;-1.192;2022-08-03T03:09:46;1.40;;;0.70;;
46755;SDS011;32506;52.826;-1.192;2022-08-03T03:12:13;2.47;;;0.57;;
46755;SDS011;32506;52.826;-1.192;2022-08-03T03:14:39;1.52;;;0.50;;
46755;SDS011;32506;52.826;-1.192;2022-08-03T03:17:05;2.28;;;0.68;;
46755;SDS011;32506;52.826;-1.192;2022-08-03T03:19:32;1.63;;;0.73;;
46755;SDS011;32506;52.826;-1.192;2022-08-03T03:21:59;2.95;;;0.60;;
46755;SDS011;32506;52.826;-1.192;2022-08-03T03:24:29;1.98;;;0.82;;
46755;SDS011;32506;52.826;-1.192;2022-08-03T03:26:58;2.85;;;0.60;;
46755;SDS011;32506;52.826;-1.192;2022-08-03T03:29:24;1.60;;;0.80;;
46755;SDS011;32506;52.826;-1.192;2022-08-03T03:31:49;1.45;;;0.60;;
46755;SDS011;32506;52.826;-1.192;2022-08-03T03:34:15;2.42;;;0.75;;
46755;SDS011;32506;52.826;-1.192;2022-08-03T03:36:42;3.13;;;0.95;;
46755;SDS011;32506;52.826;-1.192;2022-08-03T03:39:07;2.50;;;0.70;;
46755;SDS011;32506;52.826;-1.192;2022-08-03T03:41:34;2.63;;;0.80;;
46755;SDS011;32506;52.826;-1.192;2022-08-03T03:44:00;3.28;;;0.70;;
46755;SDS011;32506;52.826;-1.192;2022-08-03T03:46:26;2.83;;;0.90;;
46755;SDS011;32506;52.826;-1.192;2022-08-03T03:48:52;2.17;;;0.80;;
46755;SDS011;32506;52.826;-1.192;2022-08-03T03:51:17;2.92;;;0.73;;
46755;SDS011;32506;52.826;-1.192;2022-08-03T03:53:56;3.58;;;0.70;;
46755;SDS011;32506;52.826;-1.192;2022-08-03T03:56:26;3.00;;;1.13;;
46755;SDS011;32506;52.826;-1.192;2022-08-03T03:58:52;1.73;;;1.10;;
46755;SDS011;32506;52.826;-1.192;2022-08-03T04:01:19;1.88;;;0.70;;
46755;SDS011;32506;52.826;-1.192;2022-08-03T04:03:44;2.55;;;0.80;;
46755;SDS011;32506;52.826;-1.192;2022-08-03T04:06:10;4.03;;;0.60;;
46755;SDS011;32506;52.826;-1.192;2022-08-03T04:09:12;2.60;;;0.80;;
46755;SDS011;32506;52.826;-1.192;2022-08-03T04:11:57;4.13;;;1.20;;
46755;SDS011;32506;52.826;-1.192;2022-08-03T04:14:27;1.42;;;0.70;;
46755;SDS011;32506;52.826;-1.192;2022-08-03T04:16:58;3.00;;;1.08;;
46755;SDS011;32506;52.826;-1.192;2022-08-03T04:19:31;2.67;;;0.70;;
46755;SDS011;32506;52.826;-1.192;2022-08-03T04:22:04;3.03;;;0.70;;
46755;SDS011;32506;52.826;-1.192;2022-08-03T04:24:34;3.58;;;1.25;;
46755;SDS011;32506;52.826;-1.192;2022-08-03T04:27:10;3.03;;;1.00;;
46755;SDS011;32506;52.826;-1.192;2022-08-03T04:29:38;3.58;;;0.90;;
46755;SDS011;32506;52.826;-1.192;2022-08-03T04:32:07;2.47;;;0.65;;
46755;SDS011;32506;52.826;-1.192;2022-08-03T04:34:34;2.28;;;0.50;;
46755;SDS011;32506;52.826;-1.192;2022-08-03T04:37:00;2.67;;;0.68;;
46755;SDS011;32506;52.826;-1.192;2022-08-03T04:39:30;2.45;;;0.68;;
46755;SDS011;32506;52.826;-1.192;2022-08-03T04:41:57;3.05;;;0.50;;
46755;SDS011;32506;52.826;-1.192;2022-08-03T04:44:26;3.63;;;0.85;;
46755;SDS011;32506;52.826;-1.192;2022-08-03T04:46:53;2.90;;;0.65;;
46755;SDS011;32506;52.826;-1.192;2022-08-03T04:49:19;1.75;;;0.52;;
46755;SDS011;32506;52.826;-1.192;2022-08-03T04:51:46;2.35;;;0.68;;
46755;SDS011;32506;52.826;-1.192;2022-08-03T04:54:13;2.92;;;0.80;;
46755;SDS011;32506;52.826;-1.192;2022-08-03T04:56:40;3.15;;;1.00;;
46755;SDS011;32506;52.826;-1.192;2022-08-03T04:59:06;2.55;;;0.80;;
46755;SDS011;32506;52.826;-1.192;2022-08-03T05:01:33;2.83;;;0.80;;
46755;SDS011;32506;52.826;-1.192;2022-08-03T05:03:58;1.83;;;0.68;;
46755;SDS011;32506;52.826;-1.192;2022-08-03T05:06:24;1.00;;;0.50;;
46755;SDS011;32506;52.826;-1.192;2022-08-03T05:08:49;2.33;;;0.90;;
46755;SDS011;32506;52.826;-1.192;2022-08-03T05:11:15;3.03;;;0.60;;
46755;SDS011;32506;52.826;-1.192;2022-08-03T05:13:42;3.58;;;0.80;;
46755;SDS011;32506;52.826;-1.192;2022-08-03T05:16:08;1.05;;;0.60;;
46755;SDS011;32506;52.826;-1.192;2022-08-03T05:18:34;1.85;;;0.52;;
46755;SDS011;32506;52.826;-1.192;2022-08-03T05:20:59;1.90;;;0.70;;
46755;SDS011;32506;52.826;-1.192;2022-08-03T05:23:25;1.58;;;0.50;;
46755;SDS011;32506;52.826;-1.192;2022-08-03T05:25:51;3.45;;;0.85;;
46755;SDS011;32506;52.826;-1.192;2022-08-03T05:28:17;1.50;;;0.88;;
46755;SDS011;32506;52.826;-1.192;2022-08-03T05:30:42;0.98;;;0.70;;
46755;SDS011;32506;52.826;-1.192;2022-08-03T05:33:08;1.75;;;0.88;;
46755;SDS011;32506;52.826;-1.192;2022-08-03T05:35:35;1.58;;;0.50;;
46755;SDS011;32506;52.826;-1.192;2022-08-03T05:38:03;0.85;;;0.55;;
46755;SDS011;32506;52.826;-1.192;2022-08-03T05:40:28;2.75;;;0.60;;
46755;SDS011;32506;52.826;-1.192;2022-08-03T05:42:54;1.15;;;0.57;;
46755;SDS011;32506;52.826;-1.192;2022-08-03T05:45:19;2.17;;;0.50;;
46755;SDS011;32506;52.826;-1.192;2022-08-03T05:47:45;1.27;;;0.60;;
46755;SDS011;32506;52.826;-1.192;2022-08-03T05:50:12;0.80;;;0.40;;
46755;SDS011;32506;52.826;-1.192;2022-08-03T05:52:38;1.25;;;0.50;;
46755;SDS011;32506;52.826;-1.192;2022-08-03T05:55:05;2.30;;;0.60;;
46755;SDS011;32506;52.826;-1.192;2022-08-03T05:57:32;0.95;;;0.35;;
46755;SDS011;32506;52.826;-1.192;2022-08-03T05:59:58;0.70;;;0.38;;
46755;SDS011;32506;52.826;-1.192;2022-08-03T06:02:24;1.13;;;0.40;;
46755;SDS011;32506;52.826;-1.192;2022-08-03T06:04:50;0.80;;;0.40;;
46755;SDS011;32506;52.826;-1.192;2022-08-03T06:07:16;0.85;;;0.30;;
46755;SDS011;32506;52.826;-1.192;2022-08-03T06:09:41;1.08;;;0.30;;
46755;SDS011;32506;52.826;-1.192;2022-08-03T06:12:07;0.55;;;0.30;;
46755;SDS011;32506;52.826;-1.192;2022-08-03T06:14:32;2.08;;;0.47;;
46755;SDS011;32506;52.826;-1.192;2022-08-03T06:16:58;1.05;;;0.30;;
46755;SDS011;32506;52.826;-1.192;2022-08-03T06:19:23;0.95;;;0.45;;
46755;SDS011;32506;52.826;-1.192;2022-08-03T06:21:51;0.93;;;0.40;;
46755;SDS011;32506;52.826;-1.192;2022-08-03T06:24:16;1.95;;;0.47;;
46755;SDS011;32506;52.826;-1.192;2022-08-03T06:26:41;1.65;;;0.60;;
46755;SDS011;32506;52.826;-1.192;2022-08-03T06:29:07;1.48;;;0.40;;
46755;SDS011;32506;52.826;-1.192;2022-08-03T06:31:33;1.58;;;0.45;;
46755;SDS011;32506;52.826;-1.192;2022-08-03T06:33:58;3.28;;;0.77;;
46755;SDS011;32506;52.826;-1.192;2022-08-03T06:36:24;2.75;;;0.43;;
46755;SDS011;32506;52.826;-1.192;2022-08-03T06:38:55;3.03;;;0.52;;
46755;SDS011;32506;52.826;-1.192;2022-08-03T06:41:24;0.55;;;0.30;;
46755;SDS011;32506;52.826;-1.192;2022-08-03T06:43:50;1.42;;;0.60;;
46755;SDS011;32506;52.826;-1.192;2022-08-03T06:46:15;2.97;;;0.50;;
46755;SDS011;32506;52.826;-1.192;2022-08-03T06:48:41;1.17;;;0.70;;
46755;SDS011;32506;52.826;-1.192;2022-08-03T06:51:07;3.78;;;0.60;;
46755;SDS011;32506;52.826;-1.192;2022-08-03T06:53:32;1.73;;;0.80;;
46755;SDS011;32506;52.826;-1.192;2022-08-03T06:55:59;2.55;;;0.55;;
46755;SDS011;32506;52.826;-1.192;2022-08-03T06:58:25;1.65;;;0.70;;
46755;SDS011;32506;52.826;-1.192;2022-08-03T07:00:51;2.97;;;0.63;;
46755;SDS011;32506;52.826;-1.192;2022-08-03T07:03:16;1.67;;;0.50;;
46755;SDS011;32506;52.826;-1.192;2022-08-03T07:05:42;2.88;;;0.60;;
46755;SDS011;32506;52.826;-1.192;2022-08-03T07:08:10;1.80;;;0.55;;
46755;SDS011;32506;52.826;-1.192;2022-08-03T07:10:36;2.63;;;0.45;;
46755;SDS011;32506;52.826;-1.192;2022-08-03T07:13:02;1.35;;;0.47;;
46755;SDS011;32506;52.826;-1.192;2022-08-03T07:15:28;1.20;;;0.80;;
46755;SDS011;32506;52.826;-1.192;2022-08-03T07:17:53;1.40;;;0.50;;
46755;SDS011;32506;52.826;-1.192;2022-08-03T07:20:19;0.90;;;0.50;;
46755;SDS011;32506;52.826;-1.192;2022-08-03T07:22:44;1.05;;;0.40;;
46755;SDS011;32506;52.826;-1.192;2022-08-03T07:25:10;1.00;;;0.60;;
46755;SDS011;32506;52.826;-1.192;2022-08-03T07:27:36;1.40;;;0.65;;
46755;SDS011;32506;52.826;-1.192;2022-08-03T07:30:04;3.13;;;0.30;;
46755;SDS011;32506;52.826;-1.192;2022-08-03T07:32:30;2.92;;;0.65;;
46755;SDS011;32506;52.826;-1.192;2022-08-03T07:35:05;0.80;;;0.60;;
46755;SDS011;32506;52.826;-1.192;2022-08-03T07:37:32;2.47;;;0.45;;
46755;SDS011;32506;52.826;-1.192;2022-08-03T07:39:58;1.13;;;0.60;;
46755;SDS011;32506;52.826;-1.192;2022-08-03T07:42:27;1.58;;;0.70;;
46755;SDS011;32506;52.826;-1.192;2022-08-03T07:44:54;1.20;;;0.40;;
46755;SDS011;32506;52.826;-1.192;2022-08-03T07:47:28;0.70;;;0.32;;
46755;SDS011;32506;52.826;-1.192;2022-08-03T07:49:55;1.42;;;0.50;;
46755;SDS011;32506;52.826;-1.192;2022-08-03T07:52:21;0.80;;;0.45;;
46755;SDS011;32506;52.826;-1.192;2022-08-03T07:55:16;1.15;;;0.38;;
46755;SDS011;32506;52.826;-1.192;2022-08-03T07:57:47;0.50;;;0.30;;
46755;SDS011;32506;52.826;-1.192;2022-08-03T08:00:39;1.15;;;0.30;;
46755;SDS011;32506;52.826;-1.192;2022-08-03T08:03:05;0.73;;;0.30;;
46755;SDS011;32506;52.826;-1.192;2022-08-03T08:06:20;0.88;;;0.30;;
46755;SDS011;32506;52.826;-1.192;2022-08-03T08:12:54;1.25;;;0.57;;
46755;SDS011;32506;52.826;-1.192;2022-08-03T08:15:20;2.50;;;0.95;;
46755;SDS011;32506;52.826;-1.192;2022-08-03T08:17:47;1.13;;;0.43;;
46755;SDS011;32506;52.826;-1.192;2022-08-03T08:20:22;1.80;;;0.60;;
46755;SDS011;32506;52.826;-1.192;2022-08-03T08:22:49;1.35;;;0.55;;
46755;SDS011;32506;52.826;-1.192;2022-08-03T08:25:15;2.13;;;0.65;;
46755;SDS011;32506;52.826;-1.192;2022-08-03T08:27:43;3.17;;;0.75;;
46755;SDS011;32506;52.826;-1.192;2022-08-03T08:30:11;4.20;;;0.40;;
46755;SDS011;32506;52.826;-1.192;2022-08-03T08:32:38;3.65;;;0.52;;
46755;SDS011;32506;52.826;-1.192;2022-08-03T08:35:04;2.03;;;0.73;;
46755;SDS011;32506;52.826;-1.192;2022-08-03T08:37:31;2.40;;;0.50;;
46755;SDS011;32506;52.826;-1.192;2022-08-03T08:39:57;1.85;;;0.40;;
46755;SDS011;32506;52.826;-1.192;2022-08-03T08:42:24;0.65;;;0.30;;
46755;SDS011;32506;52.826;-1.192;2022-08-03T08:44:50;0.98;;;0.30;;
46755;SDS011;32506;52.826;-1.192;2022-08-03T08:47:19;2.22;;;0.60;;
46755;SDS011;32506;52.826;-1.192;2022-08-03T08:49:53;1.10;;;0.50;;
46755;SDS011;32506;52.826;-1.192;2022-08-03T08:52:23;1.45;;;0.60;;
46755;SDS011;32506;52.826;-1.192;2022-08-03T08:54:51;3.50;;;0.52;;
46755;SDS011;32506;52.826;-1.192;2022-08-03T08:57:32;1.27;;;0.22;;
46755;SDS011;32506;52.826;-1.192;2022-08-03T09:00:06;1.15;;;0.47;;
46755;SDS011;32506;52.826;-1.192;2022-08-03T09:02:35;0.95;;;0.60;;
46755;SDS011;32506;52.826;-1.192;2022-08-03T09:05:01;1.33;;;0.38;;
46755;SDS011;32506;52.826;-1.192;2022-08-03T09:07:27;1.48;;;0.68;;
46755;SDS011;32506;52.826;-1.192;2022-08-03T09:09:53;0.93;;;0.30;;
46755;SDS011;32506;52.826;-1.192;2022-08-03T09:12:19;0.95;;;0.35;;
46755;SDS011;32506;52.826;-1.192;2022-08-03T09:14:45;1.52;;;0.45;;
46755;SDS011;32506;52.826;-1.192;2022-08-03T09:17:11;0.90;;;0.30;;
46755;SDS011;32506;52.826;-1.192;2022-08-03T09:19:37;0.30;;;0.20;;
46755;SDS011;32506;52.826;-1.192;2022-08-03T09:24:33;0.40;;;0.25;;
46755;SDS011;32506;52.826;-1.192;2022-08-03T09:27:00;1.90;;;0.40;;
46755;SDS011;32506;52.826;-1.192;2022-08-03T09:29:25;0.57;;;0.30;;
46755;SDS011;32506;52.826;-1.192;2022-08-03T09:31:59;0.70;;;0.32;;
46755;SDS011;32506;52.826;-1.192;2022-08-03T09:34:28;2.42;;;0.30;;
46755;SDS011;32506;52.826;-1.192;2022-08-03T09:36:53;0.82;;;0.35;;
46755;SDS011;32506;52.826;-1.192;2022-08-03T09:39:22;2.30;;;0.30;;
46755;SDS011;32506;52.826;-1.192;2022-08-03T09:48:39;1.08;;;0.30;;
46755;SDS011;32506;52.826;-1.192;2022-08-03T09:51:16;1.25;;;0.30;;
46755;SDS011;32506;52.826;-1.192;2022-08-03T09:53:49;3.42;;;0.32;;
46755;SDS011;32506;52.826;-1.192;2022-08-03T09:56:15;1.13;;;0.50;;
46755;SDS011;32506;52.826;-1.192;2022-08-03T09:58:45;1.38;;;0.30;;
46755;SDS011;32506;52.826;-1.192;2022-08-03T10:01:55;1.85;;;0.30;;
46755;SDS011;32506;52.826;-1.192;2022-08-03T10:04:27;2.53;;;0.50;;
46755;SDS011;32506;52.826;-1.192;2022-08-03T10:07:05;1.10;;;0.40;;
46755;SDS011;32506;52.826;-1.192;2022-08-03T10:09:56;1.60;;;0.38;;
46755;SDS011;32506;52.826;-1.192;2022-08-03T10:12:23;1.02;;;0.38;;
46755;SDS011;32506;52.826;-1.192;2022-08-03T10:14:52;0.30;;;0.20;;
46755;SDS011;32506;52.826;-1.192;2022-08-03T10:17:19;2.20;;;0.57;;
46755;SDS011;32506;52.826;-1.192;2022-08-03T10:19:46;1.48;;;0.32;;
46755;SDS011;32506;52.826;-1.192;2022-08-03T10:22:13;2.40;;;0.40;;
46755;SDS011;32506;52.826;-1.192;2022-08-03T10:24:54;1.80;;;0.40;;
46755;SDS011;32506;52.826;-1.192;2022-08-03T10:27:23;1.00;;;0.40;;
46755;SDS011;32506;52.826;-1.192;2022-08-03T10:29:54;0.50;;;0.40;;
46755;SDS011;32506;52.826;-1.192;2022-08-03T10:32:29;1.63;;;0.50;;
46755;SDS011;32506;52.826;-1.192;2022-08-03T10:35:05;1.42;;;0.60;;
46755;SDS011;32506;52.826;-1.192;2022-08-03T10:37:44;1.20;;;0.38;;
46755;SDS011;32506;52.826;-1.192;2022-08-03T10:40:23;0.90;;;0.30;;
46755;SDS011;32506;52.826;-1.192;2022-08-03T10:42:55;1.83;;;0.47;;
46755;SDS011;32506;52.826;-1.192;2022-08-03T10:45:27;1.73;;;0.35;;
46755;SDS011;32506;52.826;-1.192;2022-08-03T10:47:55;2.08;;;0.60;;
46755;SDS011;32506;52.826;-1.192;2022-08-03T10:50:25;1.00;;;0.40;;
46755;SDS011;32506;52.826;-1.192;2022-08-03T10:52:55;1.52;;;0.45;;
46755;SDS011;32506;52.826;-1.192;2022-08-03T10:55:28;0.77;;;0.43;;
46755;SDS011;32506;52.826;-1.192;2022-08-03T10:59:02;0.73;;;0.40;;
46755;SDS011;32506;52.826;-1.192;2022-08-03T11:01:11;1.15;;;0.40;;
46755;SDS011;32506;52.826;-1.192;2022-08-03T11:08:48;3.53;;;0.50;;
46755;SDS011;32506;52.826;-1.192;2022-08-03T11:11:37;1.50;;;0.60;;
46755;SDS011;32506;52.826;-1.192;2022-08-03T11:14:06;3.17;;;0.32;;
46755;SDS011;32506;52.826;-1.192;2022-08-03T11:16:40;1.10;;;0.30;;
46755;SDS011;32506;52.826;-1.192;2022-08-03T11:19:13;2.45;;;0.50;;
46755;SDS011;32506;52.826;-1.192;2022-08-03T11:35:12;1.25;;;0.45;;
46755;SDS011;32506;52.826;-1.192;2022-08-03T11:43:03;1.23;;;0.40;;
46755;SDS011;32506;52.826;-1.192;2022-08-03T11:45:33;0.50;;;0.30;;
46755;SDS011;32506;52.826;-1.192;2022-08-03T11:48:15;0.93;;;0.30;;
46755;SDS011;32506;52.826;-1.192;2022-08-03T11:50:41;1.52;;;0.52;;
46755;SDS011;32506;52.826;-1.192;2022-08-03T11:53:12;0.93;;;0.30;;
46755;SDS011;32506;52.826;-1.192;2022-08-03T11:55:57;1.20;;;0.40;;
46755;SDS011;32506;52.826;-1.192;2022-08-03T11:58:29;1.65;;;0.47;;
46755;SDS011;32506;52.826;-1.192;2022-08-03T12:01:04;1.30;;;0.50;;
46755;SDS011;32506;52.826;-1.192;2022-08-03T12:03:35;0.80;;;0.40;;
46755;SDS011;32506;52.826;-1.192;2022-08-03T12:06:00;1.13;;;0.60;;
46755;SDS011;32506;52.826;-1.192;2022-08-03T12:11:18;1.17;;;0.50;;
46755;SDS011;32506;52.826;-1.192;2022-08-03T12:13:44;1.00;;;0.60;;
46755;SDS011;32506;52.826;-1.192;2022-08-03T12:16:38;2.15;;;0.60;;
46755;SDS011;32506;52.826;-1.192;2022-08-03T12:22:34;1.67;;;0.50;;
46755;SDS011;32506;52.826;-1.192;2022-08-03T12:28:51;2.92;;;0.60;;
46755;SDS011;32506;52.826;-1.192;2022-08-03T12:31:19;2.65;;;0.50;;
46755;SDS011;32506;52.826;-1.192;2022-08-03T12:37:36;1.58;;;0.50;;
46755;SDS011;32506;52.826;-1.192;2022-08-03T12:40:03;2.17;;;0.50;;
46755;SDS011;32506;52.826;-1.192;2022-08-03T12:42:36;1.52;;;0.68;;
46755;SDS011;32506;52.826;-1.192;2022-08-03T12:45:23;4.05;;;1.00;;
46755;SDS011;32506;52.826;-1.192;2022-08-03T12:50:38;1.90;;;0.50;;
46755;SDS011;32506;52.826;-1.192;2022-08-03T12:53:27;1.60;;;0.85;;
46755;SDS011;32506;52.826;-1.192;2022-08-03T12:58:46;2.75;;;0.73;;
46755;SDS011;32506;52.826;-1.192;2022-08-03T13:03:54;2.65;;;0.90;;
46755;SDS011;32506;52.826;-1.192;2022-08-03T13:06:21;5.90;;;1.17;;
46755;SDS011;32506;52.826;-1.192;2022-08-03T13:09:02;2.97;;;0.95;;
46755;SDS011;32506;52.826;-1.192;2022-08-03T13:11:29;3.45;;;0.70;;
46755;SDS011;32506;52.826;-1.192;2022-08-03T13:14:04;1.70;;;0.60;;
46755;SDS011;32506;52.826;-1.192;2022-08-03T13:16:49;2.15;;;0.70;;
46755;SDS011;32506;52.826;-1.192;2022-08-03T13:19:15;4.45;;;0.90;;
46755;SDS011;32506;52.826;-1.192;2022-08-03T13:21:40;2.65;;;0.90;;
46755;SDS011;32506;52.826;-1.192;2022-08-03T13:24:07;1.95;;;0.60;;
46755;SDS011;32506;52.826;-1.192;2022-08-03T13:26:32;2.15;;;0.70;;
46755;SDS011;32506;52.826;-1.192;2022-08-03T13:28:59;3.40;;;0.70;;
46755;SDS011;32506;52.826;-1.192;2022-08-03T13:31:26;3.03;;;1.00;;
46755;SDS011;32506;52.826;-1.192;2022-08-03T13:33:52;7.75;;;1.38;;
46755;SDS011;32506;52.826;-1.192;2022-08-03T13:36:31;3.80;;;1.35;;
46755;SDS011;32506;52.826;-1.192;2022-08-03T13:43:04;2.05;;;0.82;;
46755;SDS011;32506;52.826;-1.192;2022-08-03T14:02:22;2.20;;;1.02;;
46755;SDS011;32506;52.826;-1.192;2022-08-03T14:05:26;2.88;;;0.88;;
46755;SDS011;32506;52.826;-1.192;2022-08-03T14:08:00;3.75;;;0.90;;
46755;SDS011;32506;52.826;-1.192;2022-08-03T14:10:34;2.80;;;0.93;;
46755;SDS011;32506;52.826;-1.192;2022-08-03T14:13:13;3.25;;;0.93;;
46755;SDS011;32506;52.826;-1.192;2022-08-03T14:15:40;3.75;;;1.10;;
46755;SDS011;32506;52.826;-1.192;2022-08-03T14:18:07;3.60;;;0.63;;
46755;SDS011;32506;52.826;-1.192;2022-08-03T14:20:33;2.38;;;0.93;;
46755;SDS011;32506;52.826;-1.192;2022-08-03T14:23:01;2.45;;;0.90;;
46755;SDS011;32506;52.826;-1.192;2022-08-03T14:25:27;2.67;;;0.77;;
46755;SDS011;32506;52.826;-1.192;2022-08-03T14:27:54;2.53;;;1.08;;
46755;SDS011;32506;52.826;-1.192;2022-08-03T14:30:20;1.35;;;0.70;;
46755;SDS011;32506;52.826;-1.192;2022-08-03T14:32:46;4.07;;;0.85;;
46755;SDS011;32506;52.826;-1.192;2022-08-03T14:35:14;3.72;;;0.98;;
46755;SDS011;32506;52.826;-1.192;2022-08-03T14:37:40;3.20;;;0.80;;
46755;SDS011;32506;52.826;-1.192;2022-08-03T14:40:06;3.67;;;0.95;;
46755;SDS011;32506;52.826;-1.192;2022-08-03T14:42:33;1.65;;;0.82;;
46755;SDS011;32506;52.826;-1.192;2022-08-03T14:44:59;2.40;;;1.02;;
46755;SDS011;32506;52.826;-1.192;2022-08-03T14:47:25;2.78;;;0.90;;
46755;SDS011;32506;52.826;-1.192;2022-08-03T14:49:50;2.40;;;0.60;;
46755;SDS011;32506;52.826;-1.192;2022-08-03T14:52:16;3.20;;;1.40;;
46755;SDS011;32506;52.826;-1.192;2022-08-03T14:54:42;3.40;;;0.70;;
46755;SDS011;32506;52.826;-1.192;2022-08-03T14:57:09;2.45;;;0.80;;
46755;SDS011;32506;52.826;-1.192;2022-08-03T14:59:58;2.53;;;0.90;;
46755;SDS011;32506;52.826;-1.192;2022-08-03T15:02:26;4.38;;;1.33;;
46755;SDS011;32506;52.826;-1.192;2022-08-03T15:04:55;4.00;;;1.23;;
46755;SDS011;32506;52.826;-1.192;2022-08-03T15:07:20;2.75;;;0.75;;
46755;SDS011;32506;52.826;-1.192;2022-08-03T15:09:46;2.40;;;1.02;;
46755;SDS011;32506;52.826;-1.192;2022-08-03T15:12:13;4.07;;;0.93;;
46755;SDS011;32506;52.826;-1.192;2022-08-03T15:14:39;2.63;;;1.27;;
46755;SDS011;32506;52.826;-1.192;2022-08-03T15:18:06;2.33;;;0.73;;
46755;SDS011;32506;52.826;-1.192;2022-08-03T15:31:52;3.28;;;0.93;;
46755;SDS011;32506;52.826;-1.192;2022-08-03T15:34:57;2.10;;;0.93;;
46755;SDS011;32506;52.826;-1.192;2022-08-03T15:38:20;2.30;;;0.88;;
46755;SDS011;32506;52.826;-1.192;2022-08-03T15:41:29;3.42;;;0.90;;
46755;SDS011;32506;52.826;-1.192;2022-08-03T16:22:44;4.57;;;1.13;;
46755;SDS011;32506;52.826;-1.192;2022-08-03T16:48:39;2.92;;;1.10;;
46755;SDS011;32506;52.826;-1.192;2022-08-03T16:51:07;3.42;;;1.08;;
46755;SDS011;32506;52.826;-1.192;2022-08-03T16:53:41;3.05;;;0.80;;
46755;SDS011;32506;52.826;-1.192;2022-08-03T16:56:12;4.93;;;1.20;;
46755;SDS011;32506;52.826;-1.192;2022-08-03T16:58:38;3.53;;;0.70;;
46755;SDS011;32506;52.826;-1.192;2022-08-03T17:01:13;2.53;;;0.90;;
46755;SDS011;32506;52.826;-1.192;2022-08-03T17:03:59;5.82;;;1.05;;
46755;SDS011;32506;52.826;-1.192;2022-08-03T17:06:26;3.08;;;0.68;;
46755;SDS011;32506;52.826;-1.192;2022-08-03T17:08:53;3.03;;;0.95;;
46755;SDS011;32506;52.826;-1.192;2022-08-03T17:14:39;2.85;;;0.95;;
46755;SDS011;32506;52.826;-1.192;2022-08-03T17:17:07;2.47;;;0.70;;
46755;SDS011;32506;52.826;-1.192;2022-08-03T17:19:42;2.75;;;0.95;;
46755;SDS011;32506;52.826;-1.192;2022-08-03T17:22:18;4.03;;;1.05;;
46755;SDS011;32506;52.826;-1.192;2022-08-03T17:24:51;3.72;;;0.93;;
46755;SDS011;32506;52.826;-1.192;2022-08-03T17:27:25;2.88;;;0.90;;
46755;SDS011;32506;52.826;-1.192;2022-08-03T17:30:11;1.90;;;0.77;;
46755;SDS011;32506;52.826;-1.192;2022-08-03T17:33:10;2.25;;;0.80;;
46755;SDS011;32506;52.826;-1.192;2022-08-03T17:35:36;2.55;;;0.82;;
46755;SDS011;32506;52.826;-1.192;2022-08-03T17:38:05;5.35;;;0.98;;
46755;SDS011;32506;52.826;-1.192;2022-08-03T17:40:33;1.88;;;0.60;;
46755;SDS011;32506;52.826;-1.192;2022-08-03T17:43:01;3.28;;;1.00;;
46755;SDS011;32506;52.826;-1.192;2022-08-03T17:45:27;3.42;;;1.00;;
46755;SDS011;32506;52.826;-1.192;2022-08-03T17:48:12;2.55;;;0.75;;